createdAt,value
2019-02-23T00:00:29.088Z,7.86
2019-02-23T00:02:54.977Z,7.72
2019-02-23T00:05:23.906Z,7.72
2019-02-23T00:07:49.863Z,7.71
2019-02-23T00:10:15.782Z,7.74
2019-02-23T00:12:41.768Z,8.07
2019-02-23T00:15:08.211Z,8.06
2019-02-23T00:17:34.233Z,8.02
2019-02-23T00:20:00.309Z,8.13
2019-02-23T00:22:26.213Z,8.00
2019-02-23T00:24:52.105Z,7.82
2019-02-23T00:27:17.935Z,7.70
2019-02-23T00:29:43.772Z,7.80
2019-02-23T00:32:09.655Z,7.61
2019-02-23T00:34:35.503Z,7.93
2019-02-23T00:37:01.324Z,8.24
2019-02-23T00:39:27.217Z,8.25
2019-02-23T00:41:53.069Z,8.30
2019-02-23T00:44:18.932Z,8.19
2019-02-23T00:46:44.792Z,8.09
2019-02-23T00:49:10.681Z,8.04
2019-02-23T00:51:36.578Z,8.01
2019-02-23T00:54:02.589Z,7.99
2019-02-23T00:56:28.526Z,7.92
2019-02-23T00:58:54.414Z,7.91
2019-02-23T01:01:20.275Z,7.92
2019-02-23T01:03:46.124Z,7.98
2019-02-23T01:06:11.974Z,7.97
2019-02-23T01:08:37.841Z,7.76
2019-02-23T01:11:03.770Z,7.82
2019-02-23T01:13:29.663Z,7.96
2019-02-23T01:15:58.347Z,7.84
2019-02-23T01:18:23.441Z,7.82
2019-02-23T01:20:50.167Z,7.78
2019-02-23T01:23:16.003Z,7.82
2019-02-23T01:25:41.821Z,7.84
2019-02-23T01:28:07.791Z,7.79
2019-02-23T01:30:33.832Z,7.72
2019-02-23T01:32:59.792Z,7.72
2019-02-23T01:35:25.626Z,7.71
2019-02-23T01:37:51.563Z,7.66
2019-02-23T01:40:17.537Z,7.47
2019-02-23T01:42:43.490Z,7.40
2019-02-23T01:45:09.723Z,7.58
2019-02-23T01:47:35.689Z,7.41
2019-02-23T01:50:02.311Z,7.53
2019-02-23T01:52:28.188Z,7.33
2019-02-23T01:54:54.116Z,7.59
2019-02-23T01:57:20.186Z,7.92
2019-02-23T01:59:46.058Z,7.56
2019-02-23T02:02:13.629Z,7.54
2019-02-23T02:04:39.657Z,7.38
2019-02-23T02:07:05.849Z,7.40
2019-02-23T02:09:31.783Z,7.05
2019-02-23T02:11:57.724Z,7.27
2019-02-23T02:14:23.830Z,7.38
2019-02-23T02:16:49.898Z,7.34
2019-02-23T02:19:15.947Z,7.27
2019-02-23T02:21:42.006Z,7.28
2019-02-23T02:24:07.857Z,7.29
2019-02-23T02:26:33.714Z,7.52
2019-02-23T02:28:59.542Z,7.44
2019-02-23T02:31:25.530Z,7.96
2019-02-23T02:34:06.498Z,7.67
2019-02-23T02:36:32.363Z,8.17
2019-02-23T02:38:58.266Z,8.74
2019-02-23T02:41:24.163Z,9.09
2019-02-23T02:43:50.799Z,8.99
2019-02-23T02:46:16.617Z,9.26
2019-02-23T02:48:42.669Z,9.06
2019-02-23T02:51:08.553Z,8.87
2019-02-23T02:53:34.474Z,9.46
2019-02-23T02:56:00.312Z,9.29
2019-02-23T02:58:26.177Z,9.33
2019-02-23T03:00:52.034Z,9.42
2019-02-23T03:03:17.888Z,9.33
2019-02-23T03:05:43.721Z,9.24
2019-02-23T03:08:09.682Z,9.23
2019-02-23T03:10:35.641Z,9.04
2019-02-23T03:13:01.600Z,9.04
2019-02-23T03:15:27.552Z,8.99
2019-02-23T03:17:53.513Z,9.03
2019-02-23T03:20:19.387Z,9.05
2019-02-23T03:22:45.255Z,8.85
2019-02-23T03:25:11.288Z,8.84
2019-02-23T03:27:37.165Z,8.71
2019-02-23T03:30:05.671Z,8.56
2019-02-23T03:32:31.610Z,8.46
2019-02-23T03:34:57.440Z,8.36
2019-02-23T03:37:23.332Z,8.42
2019-02-23T03:39:49.264Z,8.30
2019-02-23T03:42:15.298Z,8.33
2019-02-23T03:44:41.169Z,8.40
2019-02-23T03:47:07.135Z,8.10
2019-02-23T03:49:33.124Z,8.04
2019-02-23T03:51:59.073Z,8.07
2019-02-23T03:54:25.077Z,8.07
2019-02-23T03:56:50.971Z,7.94
2019-02-23T03:59:16.954Z,8.42
2019-02-23T04:01:43.342Z,8.33
2019-02-23T04:04:09.268Z,8.12
2019-02-23T04:06:35.379Z,7.92
2019-02-23T04:09:02.817Z,7.82
2019-02-23T04:11:28.949Z,7.68
2019-02-23T04:13:54.796Z,7.77
2019-02-23T04:16:20.730Z,8.02
2019-02-23T04:18:46.790Z,7.78
2019-02-23T04:21:12.625Z,7.86
2019-02-23T04:23:38.626Z,8.08
2019-02-23T04:26:04.616Z,8.03
2019-02-23T04:28:30.467Z,7.96
2019-02-23T04:30:56.323Z,7.91
2019-02-23T04:33:22.160Z,7.79
2019-02-23T04:35:48.097Z,7.73
2019-02-23T04:38:14.060Z,7.70
2019-02-23T04:40:39.951Z,7.56
2019-02-23T04:43:05.966Z,7.48
2019-02-23T04:45:31.920Z,7.43
2019-02-23T04:47:57.853Z,7.35
2019-02-23T04:50:23.847Z,7.76
2019-02-23T04:52:50.336Z,7.79
2019-02-23T04:55:16.502Z,7.58
2019-02-23T04:57:42.382Z,7.45
2019-02-23T05:00:13.467Z,7.45
2019-02-23T05:02:39.410Z,7.25
2019-02-23T05:05:06.168Z,7.27
2019-02-23T05:07:32.046Z,7.16
2019-02-23T05:09:59.031Z,7.11
2019-02-23T05:12:24.865Z,7.23
2019-02-23T05:14:50.896Z,7.20
2019-02-23T05:17:16.953Z,7.13
2019-02-23T05:19:42.819Z,7.15
2019-02-23T05:22:08.798Z,7.32
2019-02-23T05:24:34.660Z,7.03
2019-02-23T05:27:00.626Z,6.93
2019-02-23T05:29:26.585Z,6.91
2019-02-23T05:31:52.446Z,6.95
2019-02-23T05:34:18.425Z,6.96
2019-02-23T05:36:44.260Z,6.77
2019-02-23T05:39:10.442Z,6.79
2019-02-23T05:41:36.406Z,6.91
2019-02-23T05:44:02.471Z,6.75
2019-02-23T05:46:28.921Z,6.69
2019-02-23T05:48:55.016Z,6.80
2019-02-23T05:51:20.879Z,6.75
2019-02-23T05:53:47.085Z,6.72
2019-02-23T05:56:16.224Z,6.93
2019-02-23T05:58:40.675Z,6.81
2019-02-23T06:01:06.564Z,6.66
2019-02-23T06:03:32.590Z,6.70
2019-02-23T06:05:58.421Z,6.79
2019-02-23T06:08:24.437Z,6.81
2019-02-23T06:10:50.261Z,6.79
2019-02-23T06:13:16.109Z,6.81
2019-02-23T06:15:41.988Z,6.73
2019-02-23T06:18:07.845Z,6.56
2019-02-23T06:20:33.787Z,6.76
2019-02-23T06:22:59.981Z,6.77
2019-02-23T06:25:26.085Z,6.77
2019-02-23T06:27:51.921Z,6.86
2019-02-23T06:30:18.509Z,6.92
2019-02-23T06:32:44.571Z,7.07
2019-02-23T06:35:10.621Z,6.98
2019-02-23T06:37:36.769Z,7.07
2019-02-23T06:40:05.256Z,6.99
2019-02-23T06:42:31.096Z,6.85
2019-02-23T06:44:57.078Z,6.99
2019-02-23T06:47:23.135Z,7.14
2019-02-23T06:49:49.067Z,7.24
2019-02-23T06:52:15.082Z,7.49
2019-02-23T06:54:40.970Z,7.43
2019-02-23T06:57:06.926Z,7.50
2019-02-23T06:59:32.874Z,7.65
2019-02-23T07:01:58.742Z,7.32
2019-02-23T07:04:24.574Z,7.81
2019-02-23T07:06:50.426Z,7.92
2019-02-23T07:09:16.462Z,7.94
2019-02-23T07:11:42.449Z,7.89
2019-02-23T07:14:08.417Z,7.82
2019-02-23T07:16:34.377Z,8.01
2019-02-23T07:19:00.359Z,8.05
2019-02-23T07:21:26.293Z,8.00
2019-02-23T07:23:52.135Z,7.78
2019-02-23T07:26:18.176Z,7.99
2019-02-23T07:28:44.134Z,8.06
2019-02-23T07:31:10.014Z,8.26
2019-02-23T07:33:35.856Z,8.14
2019-02-23T07:36:01.694Z,8.36
2019-02-23T07:38:27.539Z,8.17
2019-02-23T07:40:53.771Z,8.22
2019-02-23T07:43:19.721Z,8.27
2019-02-23T07:45:45.543Z,8.43
2019-02-23T07:48:11.547Z,8.21
2019-02-23T07:50:37.529Z,8.12
2019-02-23T07:53:03.585Z,8.73
2019-02-23T07:55:29.544Z,8.63
2019-02-23T07:57:55.461Z,8.75
2019-02-23T08:00:21.460Z,8.45
2019-02-23T08:02:47.328Z,8.81
2019-02-23T08:05:13.335Z,8.58
2019-02-23T08:07:40.070Z,8.42
2019-02-23T08:10:08.817Z,8.51
2019-02-23T08:12:34.816Z,8.50
2019-02-23T08:15:00.787Z,8.73
2019-02-23T08:17:26.618Z,8.46
2019-02-23T08:19:52.516Z,8.50
2019-02-23T08:22:18.510Z,8.37
2019-02-23T08:24:44.348Z,8.86
2019-02-23T08:27:10.174Z,8.81
2019-02-23T08:29:36.173Z,9.09
2019-02-23T08:32:02.246Z,9.33
2019-02-23T08:34:28.188Z,9.46
2019-02-23T08:36:54.036Z,9.92
2019-02-23T08:39:19.917Z,9.85
2019-02-23T08:41:45.899Z,10.10
2019-02-23T08:44:11.971Z,10.19
2019-02-23T08:46:37.839Z,10.43
2019-02-23T08:49:03.875Z,10.46
2019-02-23T08:51:29.752Z,10.66
2019-02-23T08:53:56.029Z,10.53
2019-02-23T08:56:21.858Z,10.26
2019-02-23T08:58:47.730Z,10.52
2019-02-23T09:01:13.576Z,10.81
2019-02-23T09:06:05.471Z,11.14
2019-02-23T09:08:31.408Z,10.72
2019-02-23T09:10:57.250Z,10.67
2019-02-23T09:13:23.173Z,11.04
2019-02-23T09:15:49.111Z,11.50
2019-02-23T09:18:15.153Z,10.94
2019-02-23T09:20:41.010Z,11.22
2019-02-23T09:23:06.981Z,10.67
2019-02-23T09:25:32.948Z,10.77
2019-02-23T09:27:58.932Z,10.76
2019-02-23T09:30:24.892Z,10.98
2019-02-23T09:32:50.951Z,10.44
2019-02-23T09:35:17.036Z,10.81
2019-02-23T09:37:42.928Z,10.49
2019-02-23T09:40:11.694Z,10.72
2019-02-23T09:42:37.862Z,10.88
2019-02-23T09:45:07.905Z,10.89
2019-02-23T09:47:33.685Z,10.61
2019-02-23T09:49:59.749Z,10.16
2019-02-23T09:52:25.657Z,10.37
2019-02-23T09:54:51.545Z,9.98
2019-02-23T09:57:17.538Z,10.09
2019-02-23T09:59:43.477Z,9.76
2019-02-23T10:02:09.534Z,9.55
2019-02-23T10:04:35.412Z,9.05
2019-02-23T10:07:01.381Z,9.14
2019-02-23T10:09:27.216Z,9.42
2019-02-23T10:11:53.095Z,9.66
2019-02-23T10:14:18.977Z,9.63
2019-02-23T10:16:44.829Z,9.60
2019-02-23T10:19:10.894Z,9.59
2019-02-23T10:21:36.896Z,9.79
2019-02-23T10:24:02.956Z,9.85
2019-02-23T10:26:28.840Z,9.74
2019-02-23T10:28:54.671Z,9.53
2019-02-23T10:31:20.576Z,9.86
2019-02-23T10:33:47.850Z,9.78
2019-02-23T10:36:14.030Z,9.97
2019-02-23T10:38:40.288Z,9.86
2019-02-23T10:41:06.493Z,10.06
2019-02-23T10:43:32.325Z,10.03
2019-02-23T10:45:58.411Z,10.01
2019-02-23T10:48:24.481Z,10.05
2019-02-23T10:50:50.395Z,10.07
2019-02-23T10:53:16.264Z,9.91
2019-02-23T10:55:45.850Z,10.07
2019-02-23T10:58:11.694Z,10.03
2019-02-23T11:00:37.632Z,10.02
2019-02-23T11:03:03.785Z,9.82
2019-02-23T11:05:29.873Z,9.96
2019-02-23T11:07:56.021Z,9.98
2019-02-23T11:10:22.719Z,9.69
2019-02-23T11:12:48.748Z,9.89
2019-02-23T11:15:15.952Z,9.91
2019-02-23T11:17:41.983Z,9.63
2019-02-23T11:20:09.372Z,9.53
2019-02-23T11:22:35.496Z,9.62
2019-02-23T11:25:01.516Z,9.74
2019-02-23T11:27:27.462Z,9.80
2019-02-23T11:29:53.493Z,10.01
2019-02-23T11:32:19.462Z,9.95
2019-02-23T11:34:45.296Z,9.80
2019-02-23T11:37:11.354Z,9.96
2019-02-23T11:39:37.353Z,9.86
2019-02-23T11:42:03.400Z,9.91
2019-02-23T11:44:29.228Z,9.82
2019-02-23T11:47:02.275Z,9.70
2019-02-23T11:49:22.831Z,9.86
2019-02-23T11:51:48.742Z,9.74
2019-02-23T11:54:14.652Z,9.48
2019-02-23T11:56:40.792Z,9.50
2019-02-23T11:59:06.724Z,9.62
2019-02-23T12:01:32.711Z,9.83
2019-02-23T12:03:58.598Z,10.08
2019-02-23T12:06:24.660Z,9.77
2019-02-23T12:08:50.501Z,9.52
2019-02-23T12:11:16.433Z,9.84
2019-02-23T12:13:42.496Z,9.89
2019-02-23T12:16:08.416Z,9.76
2019-02-23T12:18:34.455Z,9.81
2019-02-23T12:21:00.417Z,9.70
2019-02-23T12:23:26.261Z,9.87
2019-02-23T12:25:52.434Z,10.02
2019-02-23T12:28:18.266Z,10.09
2019-02-23T12:30:44.219Z,10.06
2019-02-23T12:33:10.161Z,11.22
2019-02-23T12:35:36.032Z,13.50
2019-02-23T12:38:01.846Z,16.36
2019-02-23T12:40:27.784Z,19.28
2019-02-23T12:42:53.707Z,18.48
2019-02-23T12:45:19.654Z,21.33
2019-02-23T12:47:45.528Z,20.92
2019-02-23T12:50:12.137Z,21.91
2019-02-23T12:52:38.052Z,23.18
2019-02-23T12:55:06.724Z,22.65
2019-02-23T12:57:33.147Z,25.28
2019-02-23T12:59:58.987Z,21.93
2019-02-23T13:02:24.867Z,20.77
2019-02-23T13:04:50.809Z,18.82
2019-02-23T13:07:16.948Z,20.19
2019-02-23T13:09:43.767Z,21.83
2019-02-23T13:12:22.485Z,21.83
2019-02-23T13:14:55.279Z,26.65
2019-02-23T13:17:33.653Z,24.93
2019-02-23T13:20:20.861Z,24.93
2019-02-23T13:22:59.831Z,24.14
2019-02-23T13:25:38.415Z,22.92
2019-02-23T13:28:32.118Z,26.48
2019-02-23T13:31:10.893Z,28.23
2019-02-23T13:34:04.680Z,28.19
2019-02-23T13:36:46.670Z,25.78
2019-02-23T13:39:22.402Z,26.36
2019-02-23T13:42:10.290Z,27.34
2019-02-23T13:44:56.904Z,24.70
2019-02-23T13:47:29.587Z,25.49
2019-02-23T13:50:15.970Z,26.30
2019-02-23T13:52:54.684Z,28.01
2019-02-23T13:55:33.374Z,25.09
2019-02-23T13:58:18.280Z,25.67
2019-02-23T14:01:12.184Z,23.85
2019-02-23T14:03:56.397Z,27.40
2019-02-23T14:06:26.104Z,24.93
2019-02-23T14:08:58.930Z,24.76
2019-02-23T14:11:48.677Z,26.11
2019-02-23T14:14:18.344Z,24.03
2019-02-23T14:17:10.719Z,26.73
2019-02-23T14:19:49.184Z,25.36
2019-02-23T14:22:52.591Z,25.38
2019-02-23T14:25:24.920Z,26.12
2019-02-23T14:28:00.816Z,27.73
2019-02-23T14:30:42.183Z,27.20
2019-02-23T14:33:20.658Z,28.31
2019-02-23T14:35:53.392Z,25.90
2019-02-23T14:38:25.722Z,24.74
2019-02-23T14:41:10.371Z,26.92
2019-02-23T14:44:15.352Z,26.44
2019-02-23T14:46:53.867Z,25.59
2019-02-23T14:49:38.776Z,24.50
2019-02-23T14:52:44.892Z,24.84
2019-02-23T14:55:20.007Z,26.46
2019-02-23T14:58:11.975Z,24.61
2019-02-23T15:00:53.973Z,22.78
2019-02-23T15:03:43.496Z,24.05
2019-02-23T15:06:31.605Z,25.42
2019-02-23T15:09:17.813Z,23.06
2019-02-23T15:11:56.561Z,23.66
2019-02-23T15:14:43.255Z,23.29
2019-02-23T15:17:21.288Z,23.19
2019-02-23T15:19:54.029Z,24.09
2019-02-23T15:22:40.428Z,23.07
2019-02-23T15:25:13.245Z,22.87
2019-02-23T15:27:41.727Z,20.62
2019-02-23T15:30:29.973Z,23.18
2019-02-23T15:33:02.491Z,21.01
2019-02-23T15:35:35.193Z,14.57
2019-02-23T15:38:13.821Z,12.88
2019-02-23T15:41:05.156Z,12.45
2019-02-23T15:43:34.884Z,11.38
2019-02-23T15:46:16.723Z,10.98
2019-02-23T15:48:52.441Z,10.77
2019-02-23T15:51:18.532Z,10.34
2019-02-23T15:53:44.561Z,10.70
2019-02-23T15:56:10.469Z,10.05
2019-02-23T15:58:36.557Z,10.06
2019-02-23T16:01:02.813Z,9.95
2019-02-23T16:03:28.671Z,9.60
2019-02-23T16:05:54.504Z,9.68
2019-02-23T16:08:20.577Z,9.40
2019-02-23T16:10:46.405Z,9.46
2019-02-23T16:13:12.269Z,9.30
2019-02-23T16:15:38.239Z,9.39
2019-02-23T16:18:04.175Z,9.21
2019-02-23T16:20:30.197Z,9.01
2019-02-23T16:22:56.085Z,9.08
2019-02-23T16:25:22.055Z,8.92
2019-02-23T16:27:47.955Z,8.91
2019-02-23T16:30:13.917Z,8.63
2019-02-23T16:32:39.797Z,8.56
2019-02-23T16:35:06.778Z,8.47
2019-02-23T16:37:32.821Z,8.38
2019-02-23T16:39:58.751Z,8.37
2019-02-23T16:42:24.724Z,8.20
2019-02-23T16:44:50.587Z,8.14
2019-02-23T16:47:16.452Z,8.14
2019-02-23T16:49:42.296Z,7.94
2019-02-23T16:52:09.272Z,7.92
2019-02-23T16:54:35.384Z,7.78
2019-02-23T16:57:01.254Z,7.78
2019-02-23T16:59:27.182Z,7.57
2019-02-23T17:01:57.079Z,7.40
2019-02-23T17:04:23.015Z,7.34
2019-02-23T17:06:48.853Z,7.24
2019-02-23T17:09:14.694Z,7.22
2019-02-23T17:11:40.681Z,7.17
2019-02-23T17:14:06.511Z,7.19
2019-02-23T17:16:32.378Z,7.15
2019-02-23T17:18:58.336Z,6.98
2019-02-23T17:21:24.277Z,6.93
2019-02-23T17:23:50.286Z,6.92
2019-02-23T17:26:16.239Z,7.01
2019-02-23T17:28:42.261Z,6.98
2019-02-23T17:31:08.264Z,6.92
2019-02-23T17:33:34.113Z,6.76
2019-02-23T17:35:59.960Z,6.70
2019-02-23T17:38:25.985Z,6.81
2019-02-23T17:40:52.010Z,6.70
2019-02-23T17:43:17.897Z,6.72
2019-02-23T17:45:43.887Z,6.61
2019-02-23T17:48:09.731Z,6.53
2019-02-23T17:50:35.624Z,6.64
2019-02-23T17:53:01.652Z,6.68
2019-02-23T17:55:27.494Z,6.63
2019-02-23T17:57:53.351Z,6.55
2019-02-23T18:00:21.192Z,6.48
2019-02-23T18:02:47.079Z,6.50
2019-02-23T18:05:13.196Z,6.42
2019-02-23T18:07:39.166Z,6.50
2019-02-23T18:10:05.773Z,6.53
2019-02-23T18:12:31.808Z,6.56
2019-02-23T18:14:57.836Z,6.47
2019-02-23T18:17:23.702Z,6.34
2019-02-23T18:19:49.745Z,6.27
2019-02-23T18:22:15.713Z,6.22
2019-02-23T18:24:41.567Z,6.12
2019-02-23T18:27:08.541Z,6.17
2019-02-23T18:29:34.470Z,6.03
2019-02-23T18:32:00.404Z,6.08
2019-02-23T18:34:26.330Z,5.97
2019-02-23T18:36:52.149Z,5.91
2019-02-23T18:39:18.164Z,5.84
2019-02-23T18:41:44.019Z,5.82
2019-02-23T18:44:10.071Z,5.72
2019-02-23T18:46:35.889Z,5.79
2019-02-23T18:49:01.817Z,5.71
2019-02-23T18:51:27.756Z,5.77
2019-02-23T18:53:53.598Z,5.47
2019-02-23T18:56:19.676Z,5.41
2019-02-23T18:58:45.537Z,5.51
2019-02-23T19:01:11.860Z,5.49
2019-02-23T19:03:37.759Z,5.39
2019-02-23T19:06:03.765Z,5.45
2019-02-23T19:08:29.771Z,5.48
2019-02-23T19:10:55.888Z,5.37
2019-02-23T19:13:21.899Z,5.11
2019-02-23T19:15:47.891Z,4.99
2019-02-23T19:18:13.800Z,5.06
2019-02-23T19:20:39.680Z,5.13
2019-02-23T19:23:05.737Z,5.03
2019-02-23T19:25:31.637Z,4.86
2019-02-23T19:27:57.656Z,4.73
2019-02-23T19:30:23.578Z,4.80
2019-02-23T19:32:49.552Z,4.80
2019-02-23T19:35:15.481Z,4.75
2019-02-23T19:37:41.372Z,4.72
2019-02-23T19:40:08.351Z,4.55
2019-02-23T19:42:34.473Z,4.29
2019-02-23T19:45:00.337Z,4.18
2019-02-23T19:47:26.403Z,4.11
2019-02-23T19:49:54.426Z,4.39
2019-02-23T19:52:20.292Z,4.52
2019-02-23T19:54:46.155Z,4.34
2019-02-23T19:57:12.078Z,4.31
2019-02-23T19:59:38.027Z,4.24
2019-02-23T20:02:04.497Z,4.08
2019-02-23T20:04:30.571Z,4.22
2019-02-23T20:06:56.450Z,4.22
2019-02-23T20:09:22.596Z,4.17
2019-02-23T20:11:48.621Z,4.00
2019-02-23T20:14:14.470Z,4.02
2019-02-23T20:16:40.353Z,4.03
2019-02-23T20:19:06.256Z,3.94
2019-02-23T20:21:32.341Z,4.09
2019-02-23T20:23:58.631Z,4.08
2019-02-23T20:26:24.872Z,3.98
2019-02-23T20:28:51.270Z,3.99
2019-02-23T20:31:17.291Z,3.96
2019-02-23T20:33:43.543Z,3.79
2019-02-23T20:36:10.064Z,4.02
2019-02-23T20:38:37.026Z,4.02
2019-02-23T20:41:03.794Z,3.92
2019-02-23T20:43:30.646Z,4.02
2019-02-23T20:45:57.729Z,4.02
2019-02-23T20:48:24.684Z,3.85
2019-02-23T20:50:51.491Z,3.85
2019-02-23T20:53:18.488Z,3.82
2019-02-23T20:55:47.277Z,3.75
2019-02-23T20:58:14.410Z,3.75
2019-02-23T21:00:43.095Z,3.74
2019-02-23T21:03:10.254Z,3.74
2019-02-23T21:05:37.411Z,3.61
2019-02-23T21:08:04.487Z,3.73
2019-02-23T21:10:31.277Z,3.64
2019-02-23T21:12:58.455Z,3.57
2019-02-23T21:15:25.460Z,3.57
2019-02-23T21:17:52.220Z,3.57
2019-02-23T21:20:18.556Z,3.57
2019-02-23T21:22:44.911Z,3.56
2019-02-23T21:25:11.130Z,3.42
2019-02-23T21:27:37.284Z,3.37
2019-02-23T21:30:08.262Z,3.42
2019-02-23T21:32:34.102Z,3.42
2019-02-23T21:34:59.957Z,3.35
2019-02-23T21:37:25.801Z,3.38
2019-02-23T21:39:51.740Z,3.31
2019-02-23T21:42:17.637Z,3.37
2019-02-23T21:44:44.472Z,3.19
2019-02-23T21:47:10.321Z,3.16
2019-02-23T21:49:36.184Z,3.21
2019-02-23T21:52:02.149Z,3.20
2019-02-23T21:54:28.015Z,2.94
2019-02-23T21:56:53.968Z,2.94
2019-02-23T21:59:19.975Z,3.07
2019-02-23T22:01:45.817Z,3.02
2019-02-23T22:04:11.833Z,2.93
2019-02-23T22:06:37.723Z,2.99
2019-02-23T22:09:04.398Z,3.10
2019-02-23T22:11:30.307Z,3.06
2019-02-23T22:13:56.117Z,3.06
2019-02-23T22:16:21.950Z,2.92
2019-02-23T22:18:47.918Z,2.89
2019-02-23T22:21:13.860Z,2.83
2019-02-23T22:23:40.339Z,2.69
2019-02-23T22:26:06.295Z,2.87
2019-02-23T22:28:32.161Z,2.77
2019-02-23T22:30:57.981Z,2.66
2019-02-23T22:33:23.827Z,2.85
2019-02-23T22:35:49.837Z,2.80
2019-02-23T22:38:15.789Z,2.61
2019-02-23T22:40:41.719Z,2.61
2019-02-23T22:43:07.563Z,2.68
2019-02-23T22:45:33.724Z,2.69
2019-02-23T22:47:59.785Z,2.57
2019-02-23T22:50:25.721Z,2.58
2019-02-23T22:52:51.707Z,2.73
2019-02-23T22:55:17.557Z,2.57
2019-02-23T22:57:43.425Z,2.47
2019-02-23T23:00:13.082Z,2.31
2019-02-23T23:02:38.941Z,2.47
2019-02-23T23:05:05.090Z,2.49
2019-02-23T23:07:31.090Z,2.43
2019-02-23T23:09:56.922Z,2.30
2019-02-23T23:12:22.759Z,2.41
2019-02-23T23:14:48.671Z,2.35
2019-02-23T23:17:14.546Z,2.42
2019-02-23T23:19:40.412Z,2.39
2019-02-23T23:22:06.461Z,2.29
2019-02-23T23:24:32.435Z,2.31
2019-02-23T23:26:58.387Z,2.26
2019-02-23T23:29:24.261Z,2.36
2019-02-23T23:31:50.202Z,2.33
2019-02-23T23:34:16.039Z,2.36
2019-02-23T23:36:42.127Z,2.30
2019-02-23T23:39:08.075Z,2.28
2019-02-23T23:41:33.937Z,2.28
2019-02-23T23:43:59.778Z,2.21
2019-02-23T23:46:25.665Z,2.13
2019-02-23T23:48:51.615Z,2.03
2019-02-23T23:51:17.449Z,2.08
2019-02-23T23:53:43.347Z,1.96
2019-02-23T23:56:09.289Z,1.99
2019-02-23T23:58:35.124Z,1.93
